createdAt,value
2023-02-16T00:05:41.451Z,0
2023-02-16T00:12:04.369Z,0
2023-02-16T00:18:24.398Z,0
2023-02-16T00:24:47.442Z,0
2023-02-16T00:31:07.706Z,0
2023-02-16T00:37:30.408Z,0
2023-02-16T00:43:50.454Z,0
2023-02-16T00:50:13.459Z,0
2023-02-16T00:56:33.512Z,0
2023-02-16T01:02:56.550Z,0
2023-02-16T01:09:16.458Z,0
2023-02-16T01:15:39.589Z,0
2023-02-16T01:21:59.420Z,0
2023-02-16T01:28:22.434Z,0
2023-02-16T01:34:42.473Z,0
2023-02-16T01:41:05.707Z,0
2023-02-16T01:47:25.480Z,0
2023-02-16T01:53:48.717Z,0
2023-02-16T02:00:09.087Z,0
2023-02-16T02:06:32.522Z,0
2023-02-16T02:12:52.594Z,0
2023-02-16T02:19:15.475Z,0
2023-02-16T02:25:35.494Z,0
2023-02-16T02:31:58.686Z,0
2023-02-16T02:38:18.357Z,0
2023-02-16T02:44:41.444Z,0
2023-02-16T02:51:01.968Z,0
2023-02-16T02:57:24.520Z,0
2023-02-16T03:03:44.533Z,0
2023-02-16T03:10:07.381Z,0
2023-02-16T03:16:27.405Z,0
2023-02-16T03:22:50.441Z,0
2023-02-16T03:29:10.578Z,0
2023-02-16T03:35:33.460Z,0
2023-02-16T03:41:53.443Z,0
2023-02-16T03:48:16.552Z,0
2023-02-16T03:54:36.447Z,0
2023-02-16T04:00:59.587Z,0
2023-02-16T04:24:10.978Z,0
2023-02-16T04:30:30.564Z,0
2023-02-16T04:36:53.377Z,0
2023-02-16T04:43:13.361Z,0
2023-02-16T04:49:36.376Z,0
2023-02-16T04:55:56.317Z,0
2023-02-16T05:02:19.387Z,0
2023-02-16T05:08:39.314Z,0
2023-02-16T05:15:02.369Z,0
2023-02-16T05:21:22.481Z,0
2023-02-16T05:27:45.454Z,0
2023-02-16T05:34:05.505Z,0
2023-02-16T05:40:28.553Z,0
2023-02-16T05:46:48.328Z,0
2023-02-16T05:53:11.378Z,0
2023-02-16T05:59:31.364Z,0
2023-02-16T06:05:56.394Z,0
2023-02-16T06:12:16.353Z,1
2023-02-16T06:18:39.390Z,2
2023-02-16T06:24:59.412Z,5
2023-02-16T06:31:22.527Z,14
2023-02-16T06:37:42.388Z,33
2023-02-16T06:44:05.515Z,65
2023-02-16T06:50:25.327Z,113
2023-02-16T06:56:48.570Z,177
2023-02-16T07:03:08.481Z,255
2023-02-16T07:09:31.398Z,349
2023-02-16T07:15:51.423Z,493
2023-02-16T07:22:14.523Z,672
2023-02-16T07:28:34.431Z,822
2023-02-16T07:34:57.385Z,994
2023-02-16T07:41:17.375Z,1076
2023-02-16T07:47:40.362Z,903
2023-02-16T07:54:00.444Z,798
2023-02-16T08:00:23.483Z,631
2023-02-16T08:06:43.642Z,872
2023-02-16T08:13:06.489Z,1169
2023-02-16T08:19:26.437Z,1442
2023-02-16T08:25:49.352Z,1616
2023-02-16T08:32:09.450Z,1680
2023-02-16T08:38:32.510Z,1495
2023-02-16T08:44:52.396Z,1390
2023-02-16T08:51:15.502Z,1200
2023-02-16T08:57:35.425Z,1104
2023-02-16T09:03:58.441Z,1203
2023-02-16T09:10:18.366Z,1356
2023-02-16T09:34:00.371Z,1268
2023-02-16T09:40:23.326Z,1005
2023-02-16T09:46:43.384Z,1244
2023-02-16T09:53:06.414Z,2809
2023-02-16T09:59:26.408Z,3059
2023-02-16T10:05:50.396Z,3727
2023-02-16T10:12:10.679Z,3262
2023-02-16T10:18:33.486Z,3524
2023-02-16T10:24:53.359Z,4318
2023-02-16T10:31:16.638Z,3293
2023-02-16T10:37:36.390Z,3254
2023-02-16T10:43:59.370Z,2369
2023-02-16T10:50:19.438Z,2016
2023-02-16T10:56:42.381Z,2344
2023-02-16T11:03:02.444Z,2759
2023-02-16T11:09:25.432Z,2935
2023-02-16T11:15:45.388Z,3558
2023-02-16T11:22:08.424Z,3763
2023-02-16T11:28:28.389Z,3580
2023-02-16T11:34:51.372Z,2726
2023-02-16T11:41:11.361Z,1979
2023-02-16T11:47:34.409Z,1982
2023-02-16T11:53:54.471Z,2825
2023-02-16T12:00:17.465Z,3441
2023-02-16T12:06:37.449Z,2573
2023-02-16T12:13:00.348Z,1859
2023-02-16T12:19:20.399Z,1399
2023-02-16T12:25:43.483Z,1673
2023-02-16T12:32:03.730Z,1659
2023-02-16T12:38:27.388Z,1585
2023-02-16T12:44:47.388Z,1669
2023-02-16T12:51:10.405Z,1505
2023-02-16T12:57:30.960Z,1658
2023-02-16T13:03:53.684Z,1659
2023-02-16T13:10:13.448Z,1585
2023-02-16T13:16:36.396Z,1279
2023-02-16T13:22:56.402Z,1571
2023-02-16T13:29:19.424Z,1383
2023-02-16T13:35:39.412Z,1212
2023-02-16T13:42:02.395Z,901
2023-02-16T13:48:22.407Z,853
2023-02-16T13:54:45.423Z,1433
2023-02-16T14:01:05.383Z,2068
2023-02-16T14:07:28.373Z,2081
2023-02-16T14:13:48.386Z,1833
2023-02-16T14:20:11.388Z,2543
2023-02-16T14:26:31.444Z,2576
2023-02-16T14:32:54.355Z,1829
2023-02-16T14:39:14.374Z,2049
2023-02-16T14:55:43.614Z,2005
2023-02-16T15:02:03.384Z,2358
2023-02-16T15:08:26.344Z,2339
2023-02-16T15:14:46.390Z,2451
2023-02-16T15:21:09.352Z,1591
2023-02-16T15:27:29.426Z,1435
2023-02-16T15:33:52.375Z,1389
2023-02-16T15:40:24.789Z,1410
2023-02-16T15:46:35.419Z,1395
2023-02-16T15:52:55.352Z,1133
2023-02-16T15:59:18.364Z,981
2023-02-16T16:05:38.325Z,857
2023-02-16T16:12:01.374Z,734
2023-02-16T16:18:22.567Z,544
2023-02-16T16:24:45.666Z,431
2023-02-16T16:31:05.733Z,320
2023-02-16T16:37:28.358Z,190
2023-02-16T16:43:48.482Z,99
2023-02-16T16:50:11.529Z,58
2023-02-16T16:56:31.368Z,29
2023-02-16T17:02:54.458Z,11
2023-02-16T17:09:15.940Z,4
2023-02-16T17:15:37.426Z,1
2023-02-16T17:21:57.373Z,1
2023-02-16T17:28:20.403Z,0
2023-02-16T17:34:40.333Z,0
2023-02-16T17:41:03.562Z,0
2023-02-16T17:47:23.406Z,0
2023-02-16T17:53:46.376Z,0
2023-02-16T18:00:06.509Z,0
2023-02-16T18:06:29.424Z,0
2023-02-16T18:12:49.345Z,0
2023-02-16T18:19:12.379Z,0
2023-02-16T18:25:32.351Z,0
2023-02-16T18:31:55.469Z,0
2023-02-16T18:38:15.374Z,0
2023-02-16T18:44:38.378Z,0
2023-02-16T18:50:58.652Z,0
2023-02-16T18:57:21.426Z,0
2023-02-16T19:03:41.522Z,0
2023-02-16T19:10:04.379Z,0
2023-02-16T19:16:24.359Z,0
2023-02-16T19:22:47.495Z,0
2023-02-16T19:29:07.377Z,0
2023-02-16T19:35:30.362Z,0
2023-02-16T19:41:50.387Z,0
2023-02-16T19:48:13.373Z,0
2023-02-16T19:54:33.408Z,0
2023-02-16T20:11:01.276Z,0
2023-02-16T20:17:21.363Z,0
2023-02-16T20:23:44.355Z,0
2023-02-16T20:30:04.433Z,0
2023-02-16T20:36:27.385Z,0
2023-02-16T20:42:47.444Z,0
2023-02-16T20:49:10.384Z,0
2023-02-16T20:55:30.439Z,0
2023-02-16T21:01:53.359Z,0
2023-02-16T21:08:13.437Z,0
2023-02-16T21:14:36.400Z,0
2023-02-16T21:20:56.334Z,0
2023-02-16T21:27:19.420Z,0
2023-02-16T21:33:39.373Z,0
2023-02-16T21:40:02.334Z,0
2023-02-16T21:46:22.396Z,0
2023-02-16T21:52:45.388Z,0
2023-02-16T21:59:05.371Z,0
2023-02-16T22:05:28.413Z,0
2023-02-16T22:11:48.355Z,0
2023-02-16T22:18:11.429Z,0
2023-02-16T22:24:31.620Z,0
2023-02-16T22:30:54.537Z,0
2023-02-16T22:37:14.342Z,0
2023-02-16T22:43:37.407Z,0
2023-02-16T22:49:57.437Z,0
2023-02-16T22:56:20.353Z,0
2023-02-16T23:20:34.359Z,0
2023-02-16T23:26:54.377Z,0
2023-02-16T23:33:17.450Z,0
2023-02-16T23:39:37.427Z,0
2023-02-16T23:46:00.429Z,0
2023-02-16T23:52:20.371Z,0
2023-02-16T23:58:43.437Z,0
